createdAt,value
2023-03-07T00:00:47.689Z,98544.13
2023-03-07T00:03:16.465Z,98541.03
2023-03-07T00:05:45.819Z,98537.95
2023-03-07T00:08:14.462Z,98534.71
2023-03-07T00:10:43.878Z,98529.55
2023-03-07T00:13:14.536Z,98527.31
2023-03-07T00:15:42.621Z,98526.61
2023-03-07T00:18:13.551Z,98524.04
2023-03-07T00:20:42.225Z,98524.38
2023-03-07T00:23:10.723Z,98519.74
2023-03-07T00:25:40.939Z,98517.86
2023-03-07T00:28:09.462Z,98510.16
2023-03-07T00:30:38.352Z,98504.14
2023-03-07T00:33:10.527Z,98502.78
2023-03-07T00:35:38.800Z,98502.11
2023-03-07T00:38:06.939Z,98498.66
2023-03-07T00:40:38.377Z,98495.56
2023-03-07T00:43:08.284Z,98491.42
2023-03-07T00:45:36.397Z,98489.72
2023-03-07T00:48:04.693Z,98491.09
2023-03-07T00:50:34.210Z,98492.31
2023-03-07T00:53:02.622Z,98488.71
2023-03-07T00:55:31.766Z,98488.73
2023-03-07T00:58:00.205Z,98487.54
2023-03-07T01:00:28.517Z,98489.60
2023-03-07T01:02:58.332Z,98488.74
2023-03-07T01:05:28.638Z,98486.52
2023-03-07T01:07:57.834Z,98483.27
2023-03-07T01:10:28.322Z,98475.41
2023-03-07T01:12:56.917Z,98471.15
2023-03-07T01:15:25.939Z,98467.56
2023-03-07T01:17:54.469Z,98462.61
2023-03-07T01:20:22.848Z,98458.34
2023-03-07T01:22:51.060Z,98454.21
2023-03-07T01:25:19.316Z,98451.13
2023-03-07T01:27:47.655Z,98453.00
2023-03-07T01:30:16.351Z,98453.51
2023-03-07T01:32:44.647Z,98446.44
2023-03-07T01:35:13.639Z,98441.96
2023-03-07T01:37:42.100Z,98439.74
2023-03-07T01:40:12.152Z,98439.90
2023-03-07T01:42:40.264Z,98436.98
2023-03-07T01:45:34.387Z,98435.59
2023-03-07T01:48:05.177Z,98433.36
2023-03-07T01:50:34.658Z,98433.16
2023-03-07T01:53:02.805Z,98430.21
2023-03-07T01:55:35.060Z,98426.41
2023-03-07T01:58:14.156Z,98425.18
2023-03-07T02:00:42.514Z,98422.25
2023-03-07T02:03:21.558Z,98425.30
2023-03-07T02:06:04.915Z,98421.33
2023-03-07T02:08:36.816Z,98413.59
2023-03-07T02:11:05.840Z,98411.34
2023-03-07T02:13:34.023Z,98408.05
2023-03-07T02:16:04.466Z,98409.59
2023-03-07T02:18:35.276Z,98402.19
2023-03-07T02:21:25.807Z,98399.61
2023-03-07T02:24:21.659Z,98396.85
2023-03-07T02:26:51.347Z,98397.17
2023-03-07T02:29:24.068Z,98395.46
2023-03-07T02:31:52.680Z,98395.44
2023-03-07T02:34:28.943Z,98392.50
2023-03-07T02:37:19.461Z,98388.05
2023-03-07T02:39:48.539Z,98384.80
2023-03-07T02:42:26.421Z,98384.29
2023-03-07T02:45:01.786Z,98382.23
2023-03-07T02:47:32.421Z,98380.00
2023-03-07T02:50:00.994Z,98379.46
2023-03-07T02:52:30.286Z,98379.13
2023-03-07T02:54:58.890Z,98374.66
2023-03-07T02:57:33.598Z,98371.58
2023-03-07T03:00:07.147Z,98370.54
2023-03-07T03:02:35.901Z,98368.83
2023-03-07T03:05:10.261Z,98364.73
2023-03-07T03:07:38.855Z,98359.61
2023-03-07T03:10:07.815Z,98360.47
2023-03-07T03:12:37.698Z,98361.84
2023-03-07T03:15:08.072Z,98367.85
2023-03-07T03:17:36.797Z,98366.48
2023-03-07T03:20:12.909Z,98366.64
2023-03-07T03:22:41.740Z,98365.42
2023-03-07T03:25:11.573Z,98361.29
2023-03-07T03:27:41.670Z,98352.52
2023-03-07T03:30:12.790Z,98348.55
2023-03-07T03:32:48.712Z,98349.74
2023-03-07T03:35:17.630Z,98354.36
2023-03-07T03:37:46.368Z,98354.50
2023-03-07T03:40:17.786Z,98349.48
2023-03-07T03:42:47.064Z,98345.31
2023-03-07T03:45:16.673Z,98346.82
2023-03-07T03:47:44.852Z,98345.92
2023-03-07T03:50:16.313Z,98347.27
2023-03-07T03:52:45.408Z,98340.39
2023-03-07T03:55:14.125Z,98337.10
2023-03-07T03:57:43.475Z,98337.61
2023-03-07T04:00:16.071Z,98336.04
2023-03-07T04:02:44.402Z,98331.71
2023-03-07T04:05:13.707Z,98330.48
2023-03-07T04:07:41.906Z,98331.28
2023-03-07T04:10:11.007Z,98334.33
2023-03-07T04:12:42.920Z,98335.45
2023-03-07T04:15:12.933Z,98336.40
2023-03-07T04:17:41.433Z,98337.21
2023-03-07T04:20:17.406Z,98340.59
2023-03-07T04:22:47.219Z,98339.83
2023-03-07T04:25:15.820Z,98344.76
2023-03-07T04:27:44.390Z,98338.88
2023-03-07T04:30:12.933Z,98337.98
2023-03-07T04:32:42.709Z,98339.64
2023-03-07T04:35:11.035Z,98338.88
2023-03-07T04:37:40.708Z,98336.44
2023-03-07T04:40:10.192Z,98338.79
2023-03-07T04:42:38.388Z,98335.64
2023-03-07T04:45:07.430Z,98331.65
2023-03-07T04:47:35.512Z,98329.34
2023-03-07T04:50:03.859Z,98323.09
2023-03-07T04:52:34.186Z,98328.18
2023-03-07T04:55:02.833Z,98328.11
2023-03-07T04:57:31.520Z,98327.50
2023-03-07T05:00:00.216Z,98325.71
2023-03-07T05:02:29.019Z,98317.05
2023-03-07T05:04:57.533Z,98314.09
2023-03-07T05:07:27.400Z,98307.20
2023-03-07T05:09:56.660Z,98307.84
2023-03-07T05:12:28.067Z,98308.31
2023-03-07T05:14:56.824Z,98307.75
2023-03-07T05:17:24.996Z,98298.75
2023-03-07T05:19:56.293Z,98301.08
2023-03-07T05:22:42.637Z,98304.79
2023-03-07T05:25:11.626Z,98304.88
2023-03-07T05:27:40.479Z,98308.94
2023-03-07T05:30:09.440Z,98309.41
2023-03-07T05:32:38.358Z,98307.45
2023-03-07T05:35:08.905Z,98307.20
2023-03-07T05:37:38.863Z,98310.38
2023-03-07T05:40:11.140Z,98315.09
2023-03-07T05:42:42.748Z,98311.50
2023-03-07T05:45:11.535Z,98309.81
2023-03-07T05:47:40.374Z,98311.42
2023-03-07T05:50:12.312Z,98309.26
2023-03-07T05:52:42.062Z,98308.78
2023-03-07T05:55:11.475Z,98311.23
2023-03-07T05:57:39.877Z,98312.33
2023-03-07T06:00:08.989Z,98324.95
2023-03-07T06:02:49.931Z,98325.70
2023-03-07T06:05:18.843Z,98325.98
2023-03-07T06:07:50.319Z,98329.40
2023-03-07T06:10:22.371Z,98335.77
2023-03-07T06:12:51.776Z,98334.35
2023-03-07T06:15:32.144Z,98337.98
2023-03-07T06:18:06.835Z,98337.36
2023-03-07T06:20:43.106Z,98333.64
2023-03-07T06:23:14.284Z,98337.11
2023-03-07T06:25:43.714Z,98332.38
2023-03-07T06:28:13.999Z,98327.36
2023-03-07T06:30:43.646Z,98328.80
2023-03-07T06:33:23.230Z,98327.91
2023-03-07T06:35:57.140Z,98327.03
2023-03-07T06:38:27.903Z,98327.55
2023-03-07T06:40:59.204Z,98330.89
2023-03-07T06:43:30.216Z,98332.48
2023-03-07T06:46:05.750Z,98330.15
2023-03-07T06:48:42.001Z,98328.41
2023-03-07T06:51:20.046Z,98320.39
2023-03-07T06:53:50.318Z,98319.27
2023-03-07T06:56:21.594Z,98317.60
2023-03-07T06:58:51.046Z,98316.15
2023-03-07T07:01:33.981Z,98314.17
2023-03-07T07:04:07.965Z,98316.24
2023-03-07T07:06:38.786Z,98313.02
2023-03-07T07:09:07.421Z,98312.73
2023-03-07T07:11:45.878Z,98312.94
2023-03-07T07:14:17.063Z,98310.34
2023-03-07T07:16:47.797Z,98304.92
2023-03-07T07:19:19.523Z,98304.70
2023-03-07T07:21:53.311Z,98302.38
2023-03-07T07:24:24.821Z,98301.60
2023-03-07T07:27:08.311Z,98303.10
2023-03-07T07:29:39.315Z,98307.05
2023-03-07T07:32:12.132Z,98310.40
2023-03-07T07:34:42.047Z,98310.52
2023-03-07T07:37:11.927Z,98315.91
2023-03-07T07:39:46.254Z,98318.31
2023-03-07T07:42:14.465Z,98316.59
2023-03-07T07:44:53.359Z,98319.46
2023-03-07T07:47:25.002Z,98319.02
2023-03-07T07:49:54.993Z,98317.80
2023-03-07T07:52:35.904Z,98317.73
2023-03-07T07:55:05.885Z,98319.42
2023-03-07T07:57:34.241Z,98318.73
2023-03-07T08:00:07.912Z,98318.91
2023-03-07T08:02:40.891Z,98313.77
2023-03-07T08:05:12.958Z,98316.84
2023-03-07T08:07:42.808Z,98317.65
2023-03-07T08:10:15.993Z,98318.48
2023-03-07T08:12:52.620Z,98316.29
2023-03-07T08:15:24.923Z,98316.90
2023-03-07T08:17:54.836Z,98313.13
2023-03-07T08:20:29.672Z,98309.95
2023-03-07T08:22:59.938Z,98319.06
2023-03-07T08:25:28.034Z,98315.65
2023-03-07T08:28:00.123Z,98310.46
2023-03-07T08:30:32.082Z,98310.67
2023-03-07T08:33:03.780Z,98310.98
2023-03-07T08:35:36.060Z,98312.59
2023-03-07T08:38:05.121Z,98314.07
2023-03-07T08:40:41.069Z,98316.09
2023-03-07T08:43:10.707Z,98314.46
2023-03-07T08:45:41.633Z,98315.23
2023-03-07T08:48:10.778Z,98319.80
2023-03-07T08:50:39.696Z,98319.28
2023-03-07T08:53:08.779Z,98319.72
2023-03-07T08:55:37.297Z,98318.78
2023-03-07T08:58:14.053Z,98326.05
2023-03-07T09:00:45.127Z,98324.63
2023-03-07T09:03:14.069Z,98324.23
2023-03-07T09:05:42.338Z,98325.40
2023-03-07T09:08:12.213Z,98328.70
2023-03-07T09:13:26.463Z,98330.09
2023-03-07T09:15:54.682Z,98331.85
2023-03-07T09:18:26.993Z,98332.57
2023-03-07T09:21:03.479Z,98332.36
2023-03-07T09:23:35.576Z,98333.41
2023-03-07T09:26:08.827Z,98332.09
2023-03-07T09:28:39.845Z,98331.00
2023-03-07T09:31:11.612Z,98331.93
2023-03-07T09:33:42.679Z,98334.82
2023-03-07T09:36:15.749Z,98335.84
2023-03-07T09:38:44.583Z,98340.16
2023-03-07T09:41:25.085Z,98341.11
2023-03-07T09:44:31.404Z,98346.20
2023-03-07T09:47:24.064Z,98347.39
2023-03-07T09:49:53.022Z,98345.56
2023-03-07T09:52:29.196Z,98349.34
2023-03-07T09:55:16.174Z,98348.52
2023-03-07T09:58:08.119Z,98348.63
2023-03-07T10:00:41.548Z,98346.33
2023-03-07T10:03:49.650Z,98344.27
2023-03-07T10:06:26.893Z,98340.27
2023-03-07T10:08:55.403Z,98340.24
2023-03-07T10:11:48.351Z,98339.95
2023-03-07T10:14:17.601Z,98333.85
2023-03-07T10:16:51.621Z,98335.27
2023-03-07T10:19:44.674Z,98333.83
2023-03-07T10:22:30.707Z,98337.33
2023-03-07T10:24:59.252Z,98332.95
2023-03-07T10:27:29.074Z,98332.35
2023-03-07T10:29:59.773Z,98329.21
2023-03-07T10:32:38.148Z,98326.32
2023-03-07T10:35:17.680Z,98324.16
2023-03-07T10:37:52.066Z,98317.86
2023-03-07T10:40:39.990Z,98315.61
2023-03-07T10:43:08.206Z,98317.33
2023-03-07T10:45:41.917Z,98317.13
2023-03-07T10:48:16.593Z,98312.83
2023-03-07T10:51:01.021Z,98310.66
2023-03-07T10:53:32.451Z,98309.36
2023-03-07T10:56:14.668Z,98305.92
2023-03-07T10:59:09.651Z,98306.16
2023-03-07T11:01:39.299Z,98304.45
2023-03-07T11:04:08.397Z,98301.66
2023-03-07T11:06:40.968Z,98303.46
2023-03-07T11:09:11.069Z,98302.52
2023-03-07T11:11:41.404Z,98302.48
2023-03-07T11:14:14.585Z,98301.70
2023-03-07T11:16:53.873Z,98302.80
2023-03-07T11:19:35.747Z,98301.14
2023-03-07T11:22:33.739Z,98305.14
2023-03-07T11:25:15.119Z,98304.02
2023-03-07T11:27:46.680Z,98303.63
2023-03-07T11:30:30.068Z,98304.96
2023-03-07T11:33:19.964Z,98306.80
2023-03-07T11:36:17.209Z,98306.40
2023-03-07T11:39:04.323Z,98303.73
2023-03-07T11:41:41.569Z,98298.81
2023-03-07T11:44:24.495Z,98302.36
2023-03-07T11:47:18.622Z,98304.48
2023-03-07T11:50:12.991Z,98303.75
2023-03-07T11:53:09.599Z,98305.37
2023-03-07T11:55:46.768Z,98307.98
2023-03-07T11:58:36.909Z,98303.65
2023-03-07T12:01:25.699Z,98307.08
2023-03-07T12:04:31.717Z,98305.23
2023-03-07T12:07:10.833Z,98309.98
2023-03-07T12:09:49.696Z,98309.50
2023-03-07T12:12:28.453Z,98311.71
2023-03-07T12:15:21.879Z,98310.11
2023-03-07T12:17:53.782Z,98311.41
2023-03-07T12:20:32.075Z,98312.02
2023-03-07T12:23:14.289Z,98312.16
2023-03-07T12:26:18.562Z,98316.67
2023-03-07T12:29:19.702Z,98318.73
2023-03-07T12:31:55.084Z,98315.64
2023-03-07T12:34:29.697Z,98310.77
2023-03-07T12:37:11.715Z,98317.16
2023-03-07T12:40:48.482Z,98319.31
2023-03-07T12:43:30.828Z,98322.43
2023-03-07T12:46:17.588Z,98322.16
2023-03-07T12:48:58.617Z,98324.35
2023-03-07T12:51:59.633Z,98324.27
2023-03-07T12:54:34.368Z,98323.06
2023-03-07T12:57:20.196Z,98321.38
2023-03-07T12:59:51.514Z,98319.37
2023-03-07T13:02:30.641Z,98319.90
2023-03-07T13:05:02.062Z,98319.84
2023-03-07T13:07:35.908Z,98322.59
2023-03-07T13:10:05.762Z,98325.52
2023-03-07T13:12:36.127Z,98325.87
2023-03-07T13:15:07.107Z,98325.61
2023-03-07T13:17:38.276Z,98330.92
2023-03-07T13:20:15.745Z,98328.86
2023-03-07T13:22:45.864Z,98329.66
2023-03-07T13:25:20.130Z,98327.78
2023-03-07T13:27:48.572Z,98327.27
2023-03-07T13:30:19.592Z,98330.98
2023-03-07T13:32:50.984Z,98333.55
2023-03-07T13:35:48.229Z,98333.52
2023-03-07T13:38:58.409Z,98335.40
2023-03-07T13:41:46.694Z,98334.84
2023-03-07T13:44:38.819Z,98336.23
2023-03-07T13:47:43.205Z,98335.52
2023-03-07T13:50:36.615Z,98333.65
2023-03-07T13:53:28.333Z,98333.17
2023-03-07T13:56:20.214Z,98334.25
2023-03-07T13:59:10.298Z,98338.49
2023-03-07T14:01:56.283Z,98340.16
2023-03-07T14:04:40.022Z,98343.74
2023-03-07T14:07:28.999Z,98347.05
2023-03-07T14:10:22.756Z,98348.06
2023-03-07T14:13:11.263Z,98343.83
2023-03-07T14:15:58.564Z,98346.08
2023-03-07T14:18:45.471Z,98344.41
2023-03-07T14:21:20.933Z,98346.91
2023-03-07T14:24:25.654Z,98349.86
2023-03-07T14:26:56.974Z,98350.09
2023-03-07T14:29:26.593Z,98345.44
2023-03-07T14:31:57.146Z,98346.01
2023-03-07T14:34:33.017Z,98345.08
2023-03-07T14:37:04.779Z,98343.95
2023-03-07T14:39:44.489Z,98344.52
2023-03-07T14:42:21.362Z,98343.38
2023-03-07T14:45:15.806Z,98347.40
2023-03-07T14:48:16.320Z,98351.42
2023-03-07T14:50:53.670Z,98354.52
2023-03-07T14:53:26.403Z,98351.61
2023-03-07T14:55:55.493Z,98353.60
2023-03-07T14:58:33.659Z,98351.34
2023-03-07T15:01:06.722Z,98357.88
2023-03-07T15:03:35.531Z,98358.47
2023-03-07T15:06:13.591Z,98361.47
2023-03-07T15:08:41.816Z,98359.29
2023-03-07T15:11:16.529Z,98358.02
2023-03-07T15:13:51.235Z,98361.55
2023-03-07T15:16:25.991Z,98364.11
2023-03-07T15:19:19.406Z,98368.06
2023-03-07T15:21:53.407Z,98372.20
2023-03-07T15:24:35.679Z,98372.15
2023-03-07T15:27:10.623Z,98371.75
2023-03-07T15:29:47.416Z,98374.09
2023-03-07T15:32:33.305Z,98376.89
2023-03-07T15:35:09.137Z,98375.94
2023-03-07T15:38:23.602Z,98377.07
2023-03-07T15:40:51.818Z,98381.85
2023-03-07T15:43:23.694Z,98381.11
2023-03-07T15:46:00.175Z,98380.89
2023-03-07T15:48:50.862Z,98383.45
2023-03-07T15:51:20.691Z,98383.77
2023-03-07T15:54:16.666Z,98384.89
2023-03-07T15:56:45.893Z,98382.77
2023-03-07T15:59:30.496Z,98387.66
2023-03-07T16:01:58.716Z,98386.55
2023-03-07T16:04:37.121Z,98386.95
2023-03-07T16:07:16.335Z,98388.22
2023-03-07T16:09:45.075Z,98393.13
2023-03-07T16:12:14.792Z,98395.16
2023-03-07T16:14:55.912Z,98392.91
2023-03-07T16:17:36.503Z,98396.91
2023-03-07T16:20:05.260Z,98404.73
2023-03-07T16:22:34.087Z,98405.98
2023-03-07T16:25:02.560Z,98403.92
2023-03-07T16:27:31.386Z,98403.59
2023-03-07T16:30:00.952Z,98406.73
2023-03-07T16:32:29.823Z,98407.95
2023-03-07T16:34:59.718Z,98414.16
2023-03-07T16:37:28.743Z,98412.75
2023-03-07T16:39:56.924Z,98411.48
2023-03-07T16:42:25.690Z,98410.37
2023-03-07T16:44:54.730Z,98416.98
2023-03-07T16:47:23.064Z,98416.36
2023-03-07T16:49:51.308Z,98418.81
2023-03-07T16:52:19.489Z,98420.20
2023-03-07T16:54:48.430Z,98423.25
2023-03-07T16:57:18.007Z,98427.14
2023-03-07T16:59:47.245Z,98423.56
2023-03-07T17:02:25.669Z,98423.12
2023-03-07T17:04:54.094Z,98426.27
2023-03-07T17:07:27.851Z,98423.68
2023-03-07T17:09:59.527Z,98424.23
2023-03-07T17:12:29.835Z,98424.61
2023-03-07T17:15:01.266Z,98429.98
2023-03-07T17:17:33.528Z,98428.63
2023-03-07T17:20:06.059Z,98427.81
2023-03-07T17:22:38.270Z,98428.01
2023-03-07T17:25:11.417Z,98425.63
2023-03-07T17:27:59.365Z,98426.17
2023-03-07T17:30:34.343Z,98426.37
2023-03-07T17:33:04.726Z,98426.70
2023-03-07T17:35:36.212Z,98427.86
2023-03-07T17:38:04.441Z,98427.95
2023-03-07T17:40:41.576Z,98427.34
2023-03-07T17:43:13.204Z,98426.73
2023-03-07T17:45:51.307Z,98423.58
2023-03-07T17:48:21.053Z,98426.50
2023-03-07T17:50:49.437Z,98427.86
2023-03-07T17:53:22.034Z,98423.73
2023-03-07T17:55:50.220Z,98418.02
2023-03-07T17:58:19.321Z,98419.20
2023-03-07T18:00:47.622Z,98421.16
2023-03-07T18:03:18.475Z,98420.89
2023-03-07T18:05:49.505Z,98420.79
2023-03-07T18:08:20.665Z,98420.17
2023-03-07T18:10:48.904Z,98426.29
2023-03-07T18:13:20.725Z,98425.14
2023-03-07T18:15:49.111Z,98424.58
2023-03-07T18:18:17.154Z,98427.66
2023-03-07T18:20:46.232Z,98429.55
2023-03-07T18:23:14.230Z,98431.61
2023-03-07T18:25:42.570Z,98432.77
2023-03-07T18:28:11.830Z,98436.41
2023-03-07T18:30:42.690Z,98432.95
2023-03-07T18:33:12.593Z,98434.20
2023-03-07T18:35:41.998Z,98429.38
2023-03-07T18:38:10.336Z,98430.31
2023-03-07T18:40:40.489Z,98431.10
2023-03-07T18:43:08.744Z,98433.42
2023-03-07T18:45:37.167Z,98431.57
2023-03-07T18:48:05.911Z,98432.24
2023-03-07T18:50:34.343Z,98435.29
2023-03-07T18:53:04.337Z,98435.20
2023-03-07T18:55:34.773Z,98430.97
2023-03-07T18:58:08.233Z,98433.47
2023-03-07T19:00:37.366Z,98432.06
2023-03-07T19:03:08.780Z,98432.05
2023-03-07T19:05:47.364Z,98436.69
2023-03-07T19:08:17.368Z,98432.70
2023-03-07T19:10:45.743Z,98432.89
2023-03-07T19:13:14.409Z,98430.64
2023-03-07T19:15:45.017Z,98432.73
2023-03-07T19:18:13.441Z,98434.62
2023-03-07T19:20:41.490Z,98435.48
2023-03-07T19:23:09.757Z,98437.58
2023-03-07T19:25:38.530Z,98439.56
2023-03-07T19:28:06.602Z,98438.60
2023-03-07T19:30:37.170Z,98438.70
2023-03-07T19:33:08.035Z,98437.05
2023-03-07T19:35:38.247Z,98439.03
2023-03-07T19:38:07.194Z,98441.98
2023-03-07T19:40:35.333Z,98439.58
2023-03-07T19:43:04.265Z,98434.23
2023-03-07T19:45:32.617Z,98435.55
2023-03-07T19:48:00.684Z,98431.69
2023-03-07T19:50:28.866Z,98434.56
2023-03-07T19:53:00.442Z,98437.98
2023-03-07T19:55:30.925Z,98435.34
2023-03-07T19:57:59.143Z,98438.55
2023-03-07T20:00:29.707Z,98437.11
2023-03-07T20:02:57.939Z,98438.94
2023-03-07T20:05:29.379Z,98436.09
2023-03-07T20:08:04.747Z,98436.54
2023-03-07T20:10:37.730Z,98433.16
2023-03-07T20:13:14.878Z,98432.73
2023-03-07T20:15:51.804Z,98434.36
2023-03-07T20:18:22.670Z,98432.36
2023-03-07T20:20:53.917Z,98433.11
2023-03-07T20:23:22.808Z,98437.33
2023-03-07T20:25:51.385Z,98432.41
2023-03-07T20:28:19.489Z,98432.29
2023-03-07T20:30:51.030Z,98433.39
2023-03-07T20:33:22.988Z,98431.58
2023-03-07T20:36:00.975Z,98435.96
2023-03-07T20:38:33.776Z,98431.34
2023-03-07T20:41:06.747Z,98429.16
2023-03-07T20:43:36.351Z,98426.98
2023-03-07T20:46:05.812Z,98427.72
2023-03-07T20:48:36.058Z,98424.65
2023-03-07T20:51:16.200Z,98419.85
2023-03-07T20:54:00.533Z,98418.65
2023-03-07T20:56:30.394Z,98416.09
2023-03-07T20:59:03.491Z,98412.14
2023-03-07T21:01:32.670Z,98407.88
2023-03-07T21:04:06.260Z,98410.12
2023-03-07T21:06:40.836Z,98408.08
2023-03-07T21:09:10.331Z,98409.14
2023-03-07T21:11:45.248Z,98412.44
2023-03-07T21:14:14.622Z,98413.02
2023-03-07T21:16:44.895Z,98410.65
2023-03-07T21:19:13.506Z,98406.04
2023-03-07T21:21:41.598Z,98402.64
2023-03-07T21:24:12.077Z,98403.90
2023-03-07T21:26:43.319Z,98401.02
2023-03-07T21:29:13.462Z,98399.52
2023-03-07T21:31:41.618Z,98401.44
2023-03-07T21:34:13.423Z,98405.78
2023-03-07T21:36:41.509Z,98407.38
2023-03-07T21:39:11.673Z,98409.48
2023-03-07T21:41:41.215Z,98405.08
2023-03-07T21:44:09.877Z,98410.83
2023-03-07T21:46:38.617Z,98408.33
2023-03-07T21:49:07.659Z,98405.98
2023-03-07T21:51:37.517Z,98404.48
2023-03-07T21:54:05.808Z,98403.70
2023-03-07T21:56:35.182Z,98401.00
2023-03-07T21:59:03.518Z,98402.97
2023-03-07T22:01:37.544Z,98407.70
2023-03-07T22:04:05.585Z,98408.27
2023-03-07T22:06:33.807Z,98410.05
2023-03-07T22:09:01.858Z,98410.13
2023-03-07T22:11:29.969Z,98415.86
2023-03-07T22:13:59.160Z,98416.27
2023-03-07T22:16:29.650Z,98417.71
2023-03-07T22:18:58.097Z,98422.23
2023-03-07T22:21:26.848Z,98420.71
2023-03-07T22:23:59.929Z,98420.41
2023-03-07T22:26:29.070Z,98419.30
2023-03-07T22:28:57.366Z,98415.90
2023-03-07T22:31:25.787Z,98415.77
2023-03-07T22:33:54.851Z,98418.20
2023-03-07T22:36:25.074Z,98419.27
2023-03-07T22:38:55.345Z,98419.77
2023-03-07T22:41:23.998Z,98418.10
2023-03-07T22:43:52.727Z,98408.83
2023-03-07T22:46:21.152Z,98406.09
2023-03-07T22:48:52.495Z,98407.64
2023-03-07T22:51:22.993Z,98400.76
2023-03-07T22:53:53.813Z,98396.94
2023-03-07T22:56:24.402Z,98397.29
2023-03-07T22:58:58.776Z,98393.16
2023-03-07T23:01:28.577Z,98390.79
2023-03-07T23:03:57.990Z,98390.09
2023-03-07T23:06:31.174Z,98392.85
2023-03-07T23:08:59.916Z,98393.54
2023-03-07T23:11:33.092Z,98389.95
2023-03-07T23:14:01.889Z,98387.21
2023-03-07T23:16:31.796Z,98384.98
2023-03-07T23:19:03.428Z,98378.80
2023-03-07T23:21:32.317Z,98373.64
2023-03-07T23:24:03.921Z,98372.30
2023-03-07T23:26:36.922Z,98369.73
2023-03-07T23:29:05.906Z,98369.36
2023-03-07T23:31:36.647Z,98365.74
2023-03-07T23:34:06.773Z,98363.99
2023-03-07T23:36:35.414Z,98365.20
2023-03-07T23:39:03.962Z,98364.17
2023-03-07T23:41:32.031Z,98361.60
2023-03-07T23:44:00.586Z,98360.75
2023-03-07T23:46:29.269Z,98360.73
2023-03-07T23:48:57.391Z,98360.90
2023-03-07T23:51:25.639Z,98358.33
2023-03-07T23:53:55.391Z,98350.59
2023-03-07T23:56:23.979Z,98352.86
2023-03-07T23:58:52.384Z,98349.30
